createdAt,value
2018-12-28T00:02:25.631Z,9.90
2018-12-28T00:04:51.637Z,8.60
2018-12-28T00:07:17.597Z,8.63
2018-12-28T00:09:43.548Z,10.00
2018-12-28T00:12:09.523Z,9.30
2018-12-28T00:14:35.510Z,9.33
2018-12-28T00:17:02.286Z,9.37
2018-12-28T00:19:28.262Z,9.03
2018-12-28T00:21:55.021Z,9.70
2018-12-28T00:24:21.748Z,9.57
2018-12-28T00:26:48.467Z,8.57
2018-12-28T00:29:14.427Z,10.00
2018-12-28T00:31:41.156Z,9.23
2018-12-28T00:34:07.859Z,9.97
2018-12-28T00:36:33.871Z,9.73
2018-12-28T00:39:04.804Z,9.90
2018-12-28T00:41:25.839Z,9.17
2018-12-28T00:43:51.815Z,8.90
2018-12-28T00:46:17.761Z,9.77
2018-12-28T00:48:43.736Z,9.23
2018-12-28T00:51:10.431Z,9.27
2018-12-28T00:53:36.412Z,9.97
2018-12-28T00:56:03.112Z,8.97
2018-12-28T00:58:29.098Z,10.40
2018-12-28T01:00:55.034Z,8.77
2018-12-28T01:03:21.014Z,9.40
2018-12-28T01:05:47.694Z,10.73
2018-12-28T01:08:13.655Z,9.50
2018-12-28T01:10:39.624Z,10.37
2018-12-28T01:13:05.571Z,9.53
2018-12-28T01:15:31.550Z,10.30
2018-12-28T01:17:58.239Z,8.77
2018-12-28T01:20:24.210Z,9.63
2018-12-28T01:22:50.166Z,9.20
2018-12-28T01:25:16.127Z,10.20
2018-12-28T01:27:42.079Z,9.87
2018-12-28T01:30:08.063Z,9.00
2018-12-28T01:32:34.017Z,9.93
2018-12-28T01:35:00.707Z,10.10
2018-12-28T01:37:26.694Z,10.17
2018-12-28T01:39:52.648Z,9.50
2018-12-28T01:42:18.642Z,10.43
2018-12-28T01:44:44.600Z,10.20
2018-12-28T01:47:10.606Z,9.57
2018-12-28T01:49:36.564Z,10.03
2018-12-28T01:52:02.511Z,10.70
2018-12-28T01:54:29.252Z,10.90
2018-12-28T01:56:55.946Z,10.60
2018-12-28T01:59:21.929Z,9.87
2018-12-28T02:01:47.868Z,10.73
2018-12-28T02:04:13.832Z,9.83
2018-12-28T02:06:39.806Z,10.37
2018-12-28T02:09:05.803Z,10.17
2018-12-28T02:11:31.787Z,10.40
2018-12-28T02:13:57.765Z,10.20
2018-12-28T02:16:23.776Z,10.77
2018-12-28T02:18:49.742Z,10.10
2018-12-28T02:21:15.718Z,10.77
2018-12-28T02:23:42.411Z,10.37
2018-12-28T02:26:08.400Z,9.57
2018-12-28T02:28:34.341Z,9.70
2018-12-28T02:31:00.292Z,10.60
2018-12-28T02:33:26.244Z,9.70
2018-12-28T02:35:52.981Z,10.77
2018-12-28T02:38:19.678Z,9.87
2018-12-28T02:40:45.651Z,10.17
2018-12-28T02:43:12.355Z,9.97
2018-12-28T02:45:38.323Z,10.23
2018-12-28T02:48:04.266Z,10.53
2018-12-28T02:50:30.209Z,10.37
2018-12-28T02:52:56.187Z,10.57
2018-12-28T02:55:22.172Z,9.80
2018-12-28T02:57:48.210Z,10.33
2018-12-28T03:00:14.155Z,10.07
2018-12-28T03:02:40.125Z,10.47
2018-12-28T03:05:06.073Z,9.80
2018-12-28T03:07:32.063Z,10.60
2018-12-28T03:09:58.019Z,10.37
2018-12-28T03:12:24.767Z,11.47
2018-12-28T03:14:51.467Z,10.87
2018-12-28T03:17:17.421Z,10.97
2018-12-28T03:19:43.395Z,10.90
2018-12-28T03:22:09.334Z,10.80
2018-12-28T03:24:35.317Z,9.77
2018-12-28T03:27:01.273Z,10.77
2018-12-28T03:29:27.243Z,11.10
2018-12-28T03:31:53.946Z,11.60
2018-12-28T03:34:19.944Z,10.73
2018-12-28T03:36:45.928Z,11.37
2018-12-28T03:39:12.632Z,10.37
2018-12-28T03:41:38.600Z,10.83
2018-12-28T03:44:05.304Z,9.80
2018-12-28T03:46:31.288Z,9.87
2018-12-28T03:48:57.238Z,11.13
2018-12-28T03:51:23.218Z,10.33
2018-12-28T03:53:49.905Z,10.70
2018-12-28T03:56:15.885Z,11.03
2018-12-28T03:58:41.849Z,10.97
2018-12-28T04:01:07.845Z,10.83
2018-12-28T04:03:33.792Z,11.23
2018-12-28T04:05:59.773Z,10.63
2018-12-28T04:08:25.711Z,10.70
2018-12-28T04:10:51.694Z,10.77
2018-12-28T04:13:18.391Z,10.93
2018-12-28T04:15:44.343Z,10.97
2018-12-28T04:18:10.324Z,11.97
2018-12-28T04:20:36.264Z,11.70
2018-12-28T04:23:02.233Z,11.23
2018-12-28T04:25:28.195Z,10.90
2018-12-28T04:27:54.180Z,11.93
2018-12-28T04:30:20.874Z,11.30
2018-12-28T04:32:46.856Z,10.47
2018-12-28T04:35:12.810Z,10.90
2018-12-28T04:37:38.814Z,11.60
2018-12-28T04:40:08.974Z,11.50
2018-12-28T04:42:30.781Z,11.50
2018-12-28T04:44:56.766Z,11.67
2018-12-28T04:47:23.465Z,11.80
2018-12-28T04:49:49.442Z,11.63
2018-12-28T04:52:15.392Z,12.77
2018-12-28T04:54:41.368Z,11.77
2018-12-28T04:57:08.058Z,12.07
2018-12-28T04:59:34.058Z,11.73
2018-12-28T05:02:00.017Z,11.20
2018-12-28T05:04:25.991Z,11.33
2018-12-28T05:06:51.961Z,11.97
2018-12-28T05:09:17.965Z,11.67
2018-12-28T05:11:43.909Z,11.07
2018-12-28T05:14:09.861Z,11.83
2018-12-28T05:16:36.627Z,11.43
2018-12-28T05:19:02.591Z,12.17
2018-12-28T05:21:28.575Z,12.43
2018-12-28T05:23:54.541Z,12.27
2018-12-28T05:26:20.545Z,11.50
2018-12-28T05:28:46.515Z,12.33
2018-12-28T05:31:12.511Z,11.63
2018-12-28T05:33:38.475Z,12.50
2018-12-28T05:36:04.439Z,11.57
2018-12-28T05:38:30.433Z,12.53
2018-12-28T05:40:56.404Z,12.70
2018-12-28T05:43:22.400Z,12.33
2018-12-28T05:45:48.372Z,11.97
2018-12-28T05:48:14.378Z,12.30
2018-12-28T05:50:40.348Z,12.07
2018-12-28T05:53:06.340Z,11.60
2018-12-28T05:55:33.054Z,12.27
2018-12-28T05:57:59.018Z,11.07
2018-12-28T06:00:24.992Z,12.33
2018-12-28T06:02:50.944Z,12.00
2018-12-28T06:05:17.675Z,12.50
2018-12-28T06:07:44.379Z,12.00
2018-12-28T06:10:10.331Z,11.87
2018-12-28T06:12:36.314Z,12.20
2018-12-28T06:15:02.288Z,12.67
2018-12-28T06:17:28.248Z,12.87
2018-12-28T06:19:54.204Z,11.87
2018-12-28T06:22:20.312Z,12.07
2018-12-28T06:24:46.301Z,11.60
2018-12-28T06:27:13.006Z,11.73
2018-12-28T06:29:39.704Z,11.73
2018-12-28T06:32:05.672Z,12.47
2018-12-28T06:34:31.616Z,12.60
2018-12-28T06:36:58.333Z,12.00
2018-12-28T06:39:24.293Z,12.23
2018-12-28T06:41:50.360Z,13.47
2018-12-28T06:44:16.303Z,12.53
2018-12-28T06:46:42.243Z,12.93
2018-12-28T06:49:08.973Z,13.73
2018-12-28T06:51:35.677Z,12.93
2018-12-28T06:54:01.656Z,12.00
2018-12-28T06:56:27.606Z,12.27
2018-12-28T06:58:53.611Z,13.47
2018-12-28T07:01:19.571Z,11.60
2018-12-28T07:03:45.515Z,12.53
2018-12-28T07:06:12.299Z,12.30
2018-12-28T07:08:38.259Z,12.10
2018-12-28T07:11:04.262Z,12.30
2018-12-28T07:13:30.217Z,11.83
2018-12-28T07:15:56.280Z,11.97
2018-12-28T07:18:22.270Z,11.70
2018-12-28T07:20:48.247Z,11.80
2018-12-28T07:23:15.026Z,12.90
2018-12-28T07:25:40.957Z,12.80
2018-12-28T07:28:06.929Z,11.97
2018-12-28T07:30:32.904Z,12.53
2018-12-28T07:32:58.884Z,11.93
2018-12-28T07:35:24.865Z,11.30
2018-12-28T07:37:51.591Z,12.10
2018-12-28T07:40:17.547Z,11.73
2018-12-28T07:42:43.548Z,12.07
2018-12-28T07:45:10.288Z,13.23
2018-12-28T07:47:36.223Z,12.37
2018-12-28T07:50:02.936Z,12.53
2018-12-28T07:52:28.883Z,12.93
2018-12-28T07:54:55.616Z,12.30
2018-12-28T07:57:22.299Z,11.00
2018-12-28T07:59:48.309Z,13.10
2018-12-28T08:02:14.294Z,12.63
2018-12-28T08:04:41.003Z,12.53
2018-12-28T08:07:07.000Z,14.03
2018-12-28T08:09:32.972Z,13.93
2018-12-28T08:11:59.711Z,12.97
2018-12-28T08:14:25.682Z,12.53
2018-12-28T08:16:51.669Z,12.70
2018-12-28T08:19:17.608Z,12.67
2018-12-28T08:21:43.596Z,12.73
2018-12-28T08:24:09.573Z,12.33
2018-12-28T08:26:35.542Z,12.37
2018-12-28T08:29:01.520Z,12.33
2018-12-28T08:31:27.487Z,13.60
2018-12-28T08:33:53.469Z,13.13
2018-12-28T08:36:19.396Z,12.93
2018-12-28T08:38:45.397Z,11.50
2018-12-28T08:41:11.345Z,12.30
2018-12-28T08:43:37.338Z,12.80
2018-12-28T08:46:03.298Z,12.53
2018-12-28T08:48:29.239Z,12.63
2018-12-28T08:50:55.241Z,12.77
2018-12-28T08:53:21.183Z,11.97
2018-12-28T08:55:47.164Z,12.67
2018-12-28T08:58:13.124Z,12.73
2018-12-28T09:00:39.168Z,12.63
2018-12-28T09:03:05.116Z,12.00
2018-12-28T09:05:31.168Z,11.90
2018-12-28T09:07:57.124Z,12.00
2018-12-28T09:10:23.089Z,11.27
2018-12-28T09:12:49.799Z,12.17
2018-12-28T09:15:15.748Z,12.63
2018-12-28T09:17:41.738Z,12.60
2018-12-28T09:20:07.688Z,13.07
2018-12-28T09:22:33.650Z,13.10
2018-12-28T09:24:59.631Z,12.43
2018-12-28T09:27:26.315Z,12.87
2018-12-28T09:29:52.299Z,13.53
2018-12-28T09:32:18.281Z,13.30
2018-12-28T09:34:44.271Z,13.20
2018-12-28T09:37:10.227Z,12.60
2018-12-28T09:39:36.221Z,12.53
2018-12-28T09:42:02.170Z,13.20
2018-12-28T09:44:28.152Z,13.20
2018-12-28T09:46:54.110Z,13.20
2018-12-28T09:49:20.060Z,12.10
2018-12-28T09:51:46.777Z,11.83
2018-12-28T09:54:12.734Z,13.37
2018-12-28T09:56:39.483Z,13.57
2018-12-28T09:59:05.446Z,12.67
2018-12-28T10:01:31.429Z,11.77
2018-12-28T10:03:57.389Z,12.13
2018-12-28T10:06:23.396Z,12.87
2018-12-28T10:08:49.359Z,13.33
2018-12-28T10:11:15.318Z,12.47
2018-12-28T10:13:41.310Z,12.60
2018-12-28T10:16:08.022Z,12.30
2018-12-28T10:18:34.743Z,12.47
2018-12-28T10:21:00.709Z,12.90
2018-12-28T10:23:27.449Z,13.03
2018-12-28T10:25:53.405Z,13.40
2018-12-28T10:28:19.400Z,12.73
2018-12-28T10:30:45.393Z,12.77
2018-12-28T10:33:11.363Z,12.43
2018-12-28T10:35:38.093Z,12.47
2018-12-28T10:38:04.784Z,11.93
2018-12-28T10:40:30.768Z,12.80
2018-12-28T10:42:57.472Z,11.70
2018-12-28T10:45:23.454Z,13.10
2018-12-28T10:47:49.410Z,12.03
2018-12-28T10:50:15.404Z,13.30
2018-12-28T10:52:41.349Z,12.00
2018-12-28T10:55:07.318Z,12.27
2018-12-28T10:57:34.016Z,12.57
2018-12-28T10:59:59.988Z,12.93
2018-12-28T11:02:26.689Z,12.70
2018-12-28T11:04:52.630Z,13.73
2018-12-28T11:07:18.601Z,12.57
2018-12-28T11:09:44.569Z,12.50
2018-12-28T11:12:11.346Z,12.30
2018-12-28T11:14:38.123Z,12.37
2018-12-28T11:17:04.133Z,12.90
2018-12-28T11:19:30.117Z,12.33
2018-12-28T11:21:56.846Z,12.30
2018-12-28T11:24:23.542Z,12.47
2018-12-28T11:26:49.482Z,12.23
2018-12-28T11:29:15.481Z,11.97
2018-12-28T11:31:41.438Z,13.00
2018-12-28T11:34:07.428Z,12.43
2018-12-28T11:36:33.384Z,12.53
2018-12-28T11:39:00.135Z,11.87
2018-12-28T11:41:26.840Z,12.10
2018-12-28T11:43:53.567Z,12.70
2018-12-28T11:46:19.536Z,12.67
2018-12-28T11:48:46.279Z,11.73
2018-12-28T11:51:13.007Z,12.83
2018-12-28T11:53:38.970Z,12.90
2018-12-28T11:56:04.959Z,11.77
2018-12-28T11:58:31.660Z,12.20
2018-12-28T12:00:57.622Z,12.97
2018-12-28T12:03:23.600Z,12.93
2018-12-28T12:05:49.610Z,12.40
2018-12-28T12:08:15.562Z,11.83
2018-12-28T12:10:41.511Z,11.57
2018-12-28T12:13:07.496Z,12.10
2018-12-28T12:15:33.451Z,12.00
2018-12-28T12:17:59.459Z,11.93
2018-12-28T12:20:25.422Z,12.03
2018-12-28T12:22:51.445Z,10.60
2018-12-28T12:25:18.161Z,12.47
2018-12-28T12:27:44.139Z,12.40
2018-12-28T12:30:10.109Z,12.33
2018-12-28T12:32:36.101Z,11.77
2018-12-28T12:35:02.068Z,11.50
2018-12-28T12:37:28.773Z,12.37
2018-12-28T12:39:57.109Z,12.30
2018-12-28T12:42:20.755Z,11.80
2018-12-28T12:44:47.474Z,11.43
2018-12-28T12:47:13.436Z,14.40
2018-12-28T12:49:39.434Z,12.80
2018-12-28T12:52:06.154Z,11.60
2018-12-28T12:54:32.159Z,13.83
2018-12-28T12:56:58.139Z,12.70
2018-12-28T12:59:24.124Z,11.83
2018-12-28T13:01:50.098Z,12.20
2018-12-28T13:04:16.053Z,12.03
2018-12-28T13:06:42.062Z,11.83
2018-12-28T13:09:08.044Z,13.10
2018-12-28T13:11:34.777Z,12.20
2018-12-28T13:14:01.489Z,11.73
2018-12-28T13:16:27.476Z,12.03
2018-12-28T13:18:53.508Z,11.93
2018-12-28T13:21:19.475Z,12.17
2018-12-28T13:23:46.204Z,13.03
2018-12-28T13:26:12.168Z,13.07
2018-12-28T13:28:38.164Z,12.47
2018-12-28T13:31:04.856Z,12.23
2018-12-28T13:33:30.845Z,11.80
2018-12-28T13:35:57.535Z,11.60
2018-12-28T13:38:23.541Z,11.50
2018-12-28T13:40:49.520Z,13.13
2018-12-28T13:43:16.220Z,12.03
2018-12-28T13:45:42.217Z,11.73
2018-12-28T13:48:08.199Z,12.43
2018-12-28T13:50:34.164Z,12.03
2018-12-28T13:53:00.112Z,12.57
2018-12-28T13:55:26.096Z,13.30
2018-12-28T13:57:52.788Z,12.73
2018-12-28T14:00:18.791Z,11.93
2018-12-28T14:02:44.750Z,12.97
2018-12-28T14:05:10.688Z,13.07
2018-12-28T14:07:37.408Z,12.37
2018-12-28T14:10:03.363Z,12.33
2018-12-28T14:12:29.745Z,12.20
2018-12-28T14:14:55.361Z,13.37
2018-12-28T14:17:21.339Z,13.07
2018-12-28T14:19:47.293Z,13.13
2018-12-28T14:22:13.290Z,13.83
2018-12-28T14:24:39.265Z,13.07
2018-12-28T14:27:05.261Z,13.77
2018-12-28T14:29:31.223Z,12.10
2018-12-28T14:31:57.911Z,12.17
2018-12-28T14:34:23.908Z,12.67
2018-12-28T14:36:49.869Z,12.50
2018-12-28T14:39:15.874Z,11.83
2018-12-28T14:41:41.846Z,12.83
2018-12-28T14:44:07.844Z,12.37
2018-12-28T14:46:33.816Z,13.37
2018-12-28T14:49:00.536Z,12.80
2018-12-28T14:51:27.239Z,12.70
2018-12-28T14:53:53.426Z,13.03
2018-12-28T14:56:19.320Z,13.03
2018-12-28T14:58:45.323Z,12.23
2018-12-28T15:01:11.300Z,11.90
2018-12-28T15:03:37.255Z,11.40
2018-12-28T15:06:03.249Z,13.73
2018-12-28T15:08:29.224Z,12.00
2018-12-28T15:10:55.211Z,11.60
2018-12-28T15:13:21.168Z,12.70
2018-12-28T15:15:47.162Z,13.00
2018-12-28T15:18:13.134Z,11.80
2018-12-28T15:20:39.852Z,12.67
2018-12-28T15:23:05.841Z,13.37
2018-12-28T15:25:31.809Z,12.93
2018-12-28T15:27:57.791Z,13.30
2018-12-28T15:30:23.760Z,12.53
2018-12-28T15:32:49.749Z,12.50
2018-12-28T15:35:15.725Z,13.00
2018-12-28T15:37:41.710Z,12.60
2018-12-28T15:40:07.682Z,13.80
2018-12-28T15:42:33.674Z,14.77
2018-12-28T15:45:00.398Z,13.97
2018-12-28T15:47:26.396Z,13.23
2018-12-28T15:49:52.381Z,13.87
2018-12-28T15:52:18.341Z,14.37
2018-12-28T15:54:44.341Z,13.53
2018-12-28T15:57:10.371Z,14.07
2018-12-28T15:59:36.448Z,13.73
2018-12-28T16:02:02.402Z,12.73
2018-12-28T16:04:28.383Z,14.60
2018-12-28T16:06:54.389Z,12.63
2018-12-28T16:09:20.368Z,14.10
2018-12-28T16:11:46.339Z,12.67
2018-12-28T16:14:12.326Z,13.07
2018-12-28T16:16:38.319Z,12.97
2018-12-28T16:19:05.028Z,12.63
2018-12-28T16:21:30.989Z,13.33
2018-12-28T16:23:57.741Z,13.50
2018-12-28T16:26:23.713Z,13.87
2018-12-28T16:28:49.695Z,14.33
2018-12-28T16:31:15.635Z,13.70
2018-12-28T16:33:41.593Z,14.33
2018-12-28T16:36:07.563Z,13.90
2018-12-28T16:38:33.524Z,13.80
2018-12-28T16:40:59.474Z,14.27
2018-12-28T16:43:25.471Z,13.90
2018-12-28T16:45:51.414Z,15.07
2018-12-28T16:48:18.116Z,13.57
2018-12-28T16:50:44.099Z,14.47
2018-12-28T16:53:10.062Z,13.07
2018-12-28T16:55:36.040Z,14.30
2018-12-28T16:58:02.734Z,14.17
2018-12-28T17:00:28.719Z,13.90
2018-12-28T17:02:54.673Z,13.13
2018-12-28T17:05:20.650Z,14.00
2018-12-28T17:07:47.442Z,13.87
2018-12-28T17:10:13.491Z,13.77
2018-12-28T17:12:39.475Z,15.00
2018-12-28T17:15:05.443Z,14.77
2018-12-28T17:17:31.441Z,13.47
2018-12-28T17:19:57.397Z,13.53
2018-12-28T17:22:23.368Z,14.33
2018-12-28T17:24:49.329Z,15.67
2018-12-28T17:27:15.337Z,14.07
2018-12-28T17:29:41.293Z,13.90
2018-12-28T17:32:08.731Z,14.10
2018-12-28T17:34:34.051Z,14.70
2018-12-28T17:37:01.479Z,14.43
2018-12-28T17:39:27.477Z,14.40
2018-12-28T17:41:53.440Z,14.07
2018-12-28T17:44:19.420Z,16.10
2018-12-28T17:46:45.367Z,14.40
2018-12-28T17:49:11.370Z,14.67
2018-12-28T17:51:37.309Z,14.80
2018-12-28T17:54:04.036Z,14.27
2018-12-28T17:56:30.023Z,14.57
2018-12-28T17:58:56.001Z,13.80
2018-12-28T18:01:22.691Z,16.90
2018-12-28T18:03:48.681Z,14.37
2018-12-28T18:06:14.657Z,14.00
2018-12-28T18:08:40.627Z,14.70
2018-12-28T18:11:06.622Z,13.93
2018-12-28T18:13:32.571Z,15.17
2018-12-28T18:15:58.575Z,15.27
2018-12-28T18:18:24.554Z,14.43
2018-12-28T18:20:50.492Z,14.83
2018-12-28T18:23:16.509Z,14.73
2018-12-28T18:25:42.461Z,15.03
2018-12-28T18:28:08.463Z,14.67
2018-12-28T18:30:34.427Z,14.63
2018-12-28T18:33:00.426Z,13.87
2018-12-28T18:35:26.404Z,15.33
2018-12-28T18:37:52.357Z,16.00
2018-12-28T18:40:18.354Z,15.23
2018-12-28T18:42:44.356Z,13.30
2018-12-28T18:45:11.067Z,14.47
2018-12-28T18:47:37.014Z,14.50
2018-12-28T18:50:03.755Z,15.67
2018-12-28T18:52:29.709Z,14.23
2018-12-28T18:54:55.716Z,14.57
2018-12-28T18:57:22.404Z,14.07
2018-12-28T18:59:48.381Z,15.37
2018-12-28T19:02:14.399Z,13.10
2018-12-28T19:04:40.379Z,14.40
2018-12-28T19:07:06.372Z,14.27
2018-12-28T19:09:32.316Z,14.47
2018-12-28T19:11:58.292Z,13.87
2018-12-28T19:14:24.977Z,15.30
2018-12-28T19:16:50.958Z,13.30
2018-12-28T19:19:17.636Z,15.97
2018-12-28T19:21:43.629Z,14.93
2018-12-28T19:24:09.592Z,16.80
2018-12-28T19:26:35.579Z,15.43
2018-12-28T19:29:01.558Z,14.67
2018-12-28T19:31:27.525Z,14.63
2018-12-28T19:33:53.496Z,13.87
2018-12-28T19:36:19.452Z,14.53
2018-12-28T19:38:46.178Z,15.53
2018-12-28T19:41:12.152Z,14.80
2018-12-28T19:43:38.092Z,15.27
2018-12-28T19:46:04.095Z,13.93
2018-12-28T19:48:30.055Z,14.00
2018-12-28T19:50:56.071Z,14.47
2018-12-28T19:53:22.018Z,14.40
2018-12-28T19:55:48.755Z,14.63
2018-12-28T19:58:15.464Z,14.17
2018-12-28T20:00:41.453Z,15.23
2018-12-28T20:03:07.424Z,14.73
2018-12-28T20:05:33.412Z,14.67
2018-12-28T20:07:59.398Z,12.83
2018-12-28T20:10:26.144Z,15.60
2018-12-28T20:12:52.829Z,12.77
2018-12-28T20:15:18.793Z,14.97
2018-12-28T20:17:45.529Z,15.30
2018-12-28T20:20:12.204Z,15.57
2018-12-28T20:22:38.193Z,15.23
2018-12-28T20:25:04.158Z,14.40
2018-12-28T20:27:30.140Z,15.27
2018-12-28T20:29:56.840Z,15.23
2018-12-28T20:32:22.829Z,15.13
2018-12-28T20:34:48.770Z,15.73
2018-12-28T20:37:14.773Z,14.03
2018-12-28T20:39:40.727Z,14.33
2018-12-28T20:42:06.702Z,15.20
2018-12-28T20:44:32.681Z,13.87
2018-12-28T20:46:58.675Z,14.70
2018-12-28T20:49:24.653Z,13.70
2018-12-28T20:51:50.605Z,14.80
2018-12-28T20:54:16.604Z,15.00
2018-12-28T20:56:42.549Z,14.10
2018-12-28T20:59:08.547Z,13.53
2018-12-28T21:01:35.228Z,13.50
2018-12-28T21:04:01.184Z,14.80
2018-12-28T21:06:27.160Z,13.47
2018-12-28T21:08:53.169Z,13.90
2018-12-28T21:11:19.181Z,13.83
2018-12-28T21:13:45.907Z,13.67
2018-12-28T21:16:11.899Z,13.13
2018-12-28T21:18:37.853Z,13.33
2018-12-28T21:21:04.590Z,13.93
2018-12-28T21:23:30.552Z,14.13
2018-12-28T21:25:56.567Z,13.83
2018-12-28T21:28:22.517Z,13.23
2018-12-28T21:30:48.464Z,13.73
2018-12-28T21:33:14.470Z,13.83
2018-12-28T21:35:40.436Z,13.80
2018-12-28T21:38:07.177Z,13.87
2018-12-28T21:40:33.889Z,13.60
2018-12-28T21:43:06.829Z,13.17
2018-12-28T21:45:32.791Z,13.37
2018-12-28T21:47:58.787Z,12.70
2018-12-28T21:50:24.750Z,13.07
2018-12-28T21:52:50.719Z,13.60
2018-12-28T21:55:16.694Z,13.77
2018-12-28T21:57:42.644Z,13.83
2018-12-28T22:00:08.647Z,14.03
2018-12-28T22:02:34.657Z,13.53
2018-12-28T22:05:01.395Z,13.07
2018-12-28T22:07:28.137Z,13.57
2018-12-28T22:09:54.978Z,13.50
2018-12-28T22:12:20.949Z,12.87
2018-12-28T22:14:46.964Z,13.17
2018-12-28T22:17:12.920Z,12.43
2018-12-28T22:19:38.882Z,12.60
2018-12-28T22:22:04.868Z,12.73
2018-12-28T22:24:30.827Z,11.73
2018-12-28T22:26:56.807Z,12.40
2018-12-28T22:29:22.747Z,12.10
2018-12-28T22:31:48.748Z,12.00
2018-12-28T22:34:14.735Z,12.37
2018-12-28T22:36:41.461Z,12.07
2018-12-28T22:39:07.462Z,11.90
2018-12-28T22:41:33.442Z,11.03
2018-12-28T22:44:00.138Z,12.87
2018-12-28T22:46:26.099Z,12.07
2018-12-28T22:48:52.811Z,12.07
2018-12-28T22:51:18.769Z,12.00
2018-12-28T22:53:45.485Z,10.87
2018-12-28T22:56:11.484Z,11.47
2018-12-28T22:58:37.473Z,11.30
2018-12-28T23:01:03.433Z,11.93
2018-12-28T23:03:29.375Z,12.07
2018-12-28T23:05:56.099Z,11.47
2018-12-28T23:08:22.066Z,12.53
2018-12-28T23:10:48.046Z,11.47
2018-12-28T23:13:14.052Z,11.07
2018-12-28T23:15:40.016Z,11.23
2018-12-28T23:18:06.747Z,10.97
2018-12-28T23:20:32.712Z,11.10
2018-12-28T23:22:58.720Z,10.80
2018-12-28T23:25:24.674Z,11.50
2018-12-28T23:27:50.667Z,11.70
2018-12-28T23:30:16.636Z,11.17
2018-12-28T23:32:42.657Z,11.13
2018-12-28T23:35:08.610Z,10.93
2018-12-28T23:37:35.309Z,11.20
2018-12-28T23:40:01.304Z,11.23
2018-12-28T23:42:27.268Z,10.53
2018-12-28T23:44:53.238Z,11.00
2018-12-28T23:47:19.192Z,11.63
2018-12-28T23:49:45.206Z,10.23
2018-12-28T23:52:11.181Z,11.17
2018-12-28T23:54:37.130Z,11.87
2018-12-28T23:57:03.178Z,11.77
2018-12-28T23:59:29.151Z,10.53
